Time;durP1;ratioP1;P1;durP2;ratioP2;P2;SDS_P1;SDS_P2;PMS_P1;PMS_P2;Temp;Humidity;BMP_temperature;BMP_pressure;BME280_temperature;BME280_humidity;BME280_pressure;Samples;Min_cycle;Max_cycle;Signal;HPM_P1;HPM_P2
2023/09/16 00:02:38;;;;;;;404.52;385.13;;;;;;;14.99;100.00;101385.13;10478152;28;20561;-67
2023/09/16 00:07:38;;;;;;;443.30;421.77;;;;;;;14.98;100.00;101384.28;10477816;28;20044;-67
2023/09/16 00:12:39;;;;;;;454.58;432.25;;;;;;;14.94;100.00;101388.50;10477490;28;20501;-67
2023/09/16 00:17:39;;;;;;;451.67;429.17;;;;;;;14.90;100.00;101387.28;10494941;28;20123;-67
2023/09/16 00:22:41;;;;;;;463.98;441.13;;;;;;;14.85;100.00;101379.72;10477780;28;20059;-67
2023/09/16 00:27:42;;;;;;;453.83;431.52;;;;;;;14.84;100.00;101379.94;10495250;28;20024;-67
2023/09/16 00:32:43;;;;;;;494.65;469.63;;;;;;;14.82;100.00;101380.13;10494510;28;20474;-67
2023/09/16 00:37:43;;;;;;;521.60;494.77;;;;;;;14.78;100.00;101387.06;10494820;28;20075;-67
2023/09/16 00:42:44;;;;;;;552.05;522.38;;;;;;;14.85;100.00;101374.25;10493750;28;20435;-67
2023/09/16 00:47:44;;;;;;;574.88;543.53;;;;;;;14.87;100.00;101382.25;10494367;28;20557;-67
2023/09/16 00:52:51;;;;;;;609.30;575.22;;;;;;;14.96;100.00;101380.94;10476598;28;20032;-67
2023/09/16 00:57:52;;;;;;;618.90;583.90;;;;;;;14.97;100.00;101387.25;10476553;28;20039;-67
2023/09/16 01:02:54;;;;;;;622.90;586.80;;;;;;;15.03;100.00;101392.69;10459889;28;20049;-67
2023/09/16 01:07:54;;;;;;;649.38;611.42;;;;;;;15.00;100.00;101376.75;10460413;28;20032;-67
2023/09/16 01:12:54;;;;;;;640.10;603.13;;;;;;;15.01;100.00;101383.84;10475612;28;20409;-67
2023/09/16 01:18:06;;;;;;;650.03;612.15;;;;;;;14.96;100.00;101375.47;10459901;28;20033;-68
2023/09/16 01:23:07;;;;;;;645.80;607.45;;;;;;;14.94;100.00;101361.22;10493772;28;20033;-67
2023/09/16 01:28:08;;;;;;;649.35;611.33;;;;;;;14.91;100.00;101364.38;10494866;28;20154;-67
2023/09/16 01:33:16;;;;;;;644.15;606.40;;;;;;;14.87;100.00;101365.88;10494249;28;20036;-67
2023/09/16 01:38:18;;;;;;;658.72;619.42;;;;;;;14.81;100.00;101367.56;10444734;28;20028;-67
2023/09/16 01:43:19;;;;;;;681.70;640.55;;;;;;;14.74;100.00;101368.63;10476427;28;20032;-67
2023/09/16 01:48:20;;;;;;;694.58;652.53;;;;;;;14.69;100.00;101357.53;10459056;28;20103;-67
2023/09/16 01:53:20;;;;;;;693.83;651.20;;;;;;;14.59;100.00;101358.81;10459728;28;20033;-67
2023/09/16 01:58:21;;;;;;;704.92;661.50;;;;;;;14.55;100.00;101362.16;10481302;28;20392;-67
2023/09/16 02:03:21;;;;;;;719.70;675.05;;;;;;;14.54;100.00;101369.50;10500140;28;20061;-67
2023/09/16 02:08:21;;;;;;;712.17;668.00;;;;;;;14.52;100.00;101374.34;10499990;28;20465;-67
2023/09/16 02:13:22;;;;;;;731.00;684.80;;;;;;;14.49;100.00;101361.09;10482015;28;20063;-67
2023/09/16 02:18:24;;;;;;;742.20;694.75;;;;;;;14.50;100.00;101362.78;10481783;28;20028;-67
2023/09/16 02:23:24;;;;;;;739.80;692.33;;;;;;;14.52;100.00;101366.16;10501406;28;20453;-67
2023/09/16 02:28:25;;;;;;;754.50;705.67;;;;;;;14.55;100.00;101362.16;10464934;28;20123;-67
2023/09/16 02:33:25;;;;;;;743.25;695.55;;;;;;;14.55;100.00;101363.03;10482332;28;20040;-67
2023/09/16 02:38:26;;;;;;;761.28;712.55;;;;;;;14.56;100.00;101363.84;10499026;28;20532;-67
2023/09/16 02:43:26;;;;;;;740.03;693.10;;;;;;;14.55;100.00;101363.03;10499587;28;20487;-67
2023/09/16 02:48:26;;;;;;;751.80;703.53;;;;;;;14.53;100.00;101375.19;10498441;28;20032;-67
2023/09/16 02:53:27;;;;;;;757.95;709.22;;;;;;;14.49;100.00;101369.28;10498259;28;20115;-67
2023/09/16 02:58:28;;;;;;;747.05;699.13;;;;;;;14.51;100.00;101367.19;10481100;28;20084;-68
2023/09/16 03:03:28;;;;;;;740.30;693.97;;;;;;;14.51;100.00;101364.47;10498900;28;20059;-67
2023/09/16 03:08:29;;;;;;;724.42;679.33;;;;;;;14.50;100.00;101362.78;10498737;28;20491;-67
2023/09/16 03:13:29;;;;;;;731.53;685.20;;;;;;;14.52;100.00;101352.53;10497083;28;20495;-67
2023/09/16 03:18:30;;;;;;;721.83;676.22;;;;;;;14.49;100.00;101350.22;10496988;28;20052;-67
2023/09/16 03:23:30;;;;;;;706.05;662.45;;;;;;;14.44;100.00;101352.72;10479873;28;20434;-68
2023/09/16 03:28:31;;;;;;;692.67;650.22;;;;;;;14.41;100.00;101356.69;10480443;28;20064;-67
2023/09/16 03:33:31;;;;;;;698.53;656.08;;;;;;;14.41;100.00;101350.41;10497382;28;20060;-67
2023/09/16 03:38:33;;;;;;;688.97;646.72;;;;;;;14.38;100.00;101334.50;10478943;28;20056;-67
2023/09/16 03:43:33;;;;;;;669.40;629.72;;;;;;;14.38;100.00;101339.94;10496663;28;20482;-67
2023/09/16 03:48:33;;;;;;;655.83;617.13;;;;;;;14.38;100.00;101334.50;10478367;28;20130;-67
2023/09/16 03:53:34;;;;;;;643.60;605.97;;;;;;;14.32;100.00;101329.88;10497463;28;20420;-68
2023/09/16 03:58:35;;;;;;;621.17;585.15;;;;;;;14.23;100.00;101332.03;10479380;28;20021;-67
2023/09/16 04:03:35;;;;;;;611.63;577.03;;;;;;;14.15;100.00;101332.22;10491594;28;20503;-67
2023/09/16 04:08:36;;;;;;;605.70;571.42;;;;;;;14.09;100.00;101333.06;10495111;28;20044;-67
2023/09/16 04:13:36;;;;;;;602.85;569.35;;;;;;;14.05;100.00;101329.09;10495466;28;20040;-67
2023/09/16 04:18:37;;;;;;;599.38;564.78;;;;;;;13.99;100.00;101333.47;10494829;28;20028;-67
2023/09/16 04:23:38;;;;;;;586.10;552.92;;;;;;;13.95;100.00;101329.50;10495408;28;20033;-68
2023/09/16 04:28:38;;;;;;;560.90;529.60;;;;;;;13.88;100.00;101320.47;10494402;28;20036;-67
2023/09/16 04:33:38;;;;;;;543.00;513.67;;;;;;;13.83;100.00;101323.00;10495003;28;20116;-67
2023/09/16 04:38:39;;;;;;;519.10;491.15;;;;;;;13.77;100.00;101321.13;10495142;28;20149;-67
2023/09/16 04:43:39;;;;;;;483.77;458.75;;;;;;;13.70;100.00;101312.94;10476551;28;20035;-67
2023/09/16 04:48:40;;;;;;;458.40;435.15;;;;;;;13.68;100.00;101317.75;10494935;28;20033;-67
2023/09/16 04:53:40;;;;;;;437.00;415.10;;;;;;;13.66;100.00;101322.59;10476491;28;20036;-68
2023/09/16 04:58:41;;;;;;;393.60;373.27;;;;;;;13.60;100.00;101320.69;10493110;28;20021;-67
2023/09/16 05:03:41;;;;;;;385.08;365.10;;;;;;;13.58;100.00;101317.31;10493933;28;20044;-67
2023/09/16 05:08:42;;;;;;;307.05;291.20;;;;;;;13.59;100.00;101308.09;10475762;28;20115;-67
2023/09/16 05:13:45;;;;;;;293.65;278.63;;;;;;;13.60;100.00;101317.97;10494615;28;20075;-67
2023/09/16 05:18:45;;;;;;;240.02;227.30;;;;;;;13.63;100.00;101321.13;10493543;28;20424;-67
2023/09/16 05:23:46;;;;;;;196.02;184.70;;;;;;;13.67;100.00;101322.38;10493295;28;20123;-66
2023/09/16 05:28:47;;;;;;;164.73;155.25;;;;;;;13.65;100.00;101324.44;10476728;28;20127;-67
2023/09/16 05:33:47;;;;;;;147.60;139.65;;;;;;;13.69;100.00;101322.16;10483438;28;20029;-67
2023/09/16 05:38:47;;;;;;;148.23;139.63;;;;;;;13.74;100.00;101330.53;10483248;28;20120;-66
2023/09/16 05:43:48;;;;;;;158.35;149.13;;;;;;;13.81;100.00;101331.38;10501696;28;20113;-67
2023/09/16 05:48:49;;;;;;;163.10;153.60;;;;;;;13.87;100.00;101326.97;10500374;28;20033;-67
2023/09/16 05:53:50;;;;;;;188.02;177.30;;;;;;;13.98;100.00;101336.44;10501143;28;20036;-67
2023/09/16 05:58:50;;;;;;;240.10;227.38;;;;;;;14.07;100.00;101329.69;10500658;28;20111;-67
2023/09/16 06:03:51;;;;;;;263.77;250.95;;;;;;;14.26;100.00;101337.00;10500405;28;20056;-67
2023/09/16 06:08:52;;;;;;;313.92;298.20;;;;;;;14.76;100.00;101339.25;10501937;28;20431;-67
2023/09/16 06:13:53;;;;;;;379.02;359.60;;;;;;;15.36;100.00;101350.75;10500993;28;20119;-67
2023/09/16 06:18:53;;;;;;;441.10;419.50;;;;;;;16.19;100.00;101352.53;10500037;28;20032;-67
2023/09/16 06:23:54;;;;;;;434.55;413.33;;;;;;;17.17;100.00;101357.19;10499769;28;20476;-68
2023/09/16 06:28:54;;;;;;;263.00;250.25;;;;;;;17.75;100.00;101362.03;10481410;28;20037;-67
2023/09/16 06:33:55;;;;;;;148.93;140.88;;;;;;;18.20;100.00;101358.00;10466156;28;20067;-67
2023/09/16 06:38:55;;;;;;;213.88;203.55;;;;;;;18.63;100.00;101351.31;10499667;28;20032;-67
2023/09/16 06:43:56;;;;;;;363.23;346.48;;;;;;;19.08;100.00;101345.16;10499601;28;20068;-67
2023/09/16 06:48:56;;;;;;;496.48;471.73;;;;;;;19.65;100.00;101347.94;10498534;28;20028;-68
2023/09/16 06:53:57;;;;;;;587.10;555.00;;;;;;;19.98;100.00;101342.50;10499731;28;20570;-67
2023/09/16 06:58:59;;;;;;;659.25;621.85;;;;;;;20.31;100.00;101359.22;10498604;28;20117;-68
2023/09/16 07:03:59;;;;;;;705.78;663.95;;;;;;;20.51;100.00;101362.31;10466191;28;20067;-68
2023/09/16 07:09:00;;;;;;;735.92;691.38;;;;;;;20.79;100.00;101358.59;10479563;28;20040;-68
2023/09/16 07:14:00;;;;;;;762.40;714.58;;;;;;;21.29;100.00;101356.75;10497839;28;20092;-67
2023/09/16 07:19:01;;;;;;;775.50;726.35;;;;;;;21.58;98.34;101360.94;10497399;28;20119;-68
2023/09/16 07:24:02;;;;;;;804.65;752.92;;;;;;;21.99;96.50;101357.75;10497033;28;20154;-68
2023/09/16 07:29:02;;;;;;;810.28;757.65;;;;;;;22.54;93.64;101355.69;10463480;28;20037;-67
2023/09/16 07:34:03;;;;;;;812.30;759.72;;;;;;;23.04;92.03;101357.06;10480036;28;20059;-68
2023/09/16 07:39:03;;;;;;;787.28;736.88;;;;;;;23.50;91.09;101349.78;10496580;28;20498;-68
2023/09/16 07:44:04;;;;;;;773.63;724.75;;;;;;;24.03;87.20;101357.88;10496261;28;20449;-68
2023/09/16 07:49:05;;;;;;;787.33;737.53;;;;;;;24.31;84.98;101357.31;10444453;28;20028;-68
2023/09/16 07:54:07;;;;;;;676.30;637.28;;;;;;;24.15;79.79;101369.47;10477740;28;20462;-68
2023/09/16 07:59:08;;;;;;;662.40;625.28;;;;;;;24.74;81.27;101370.81;10478220;28;20352;-67
2023/09/16 08:04:08;;;;;;;619.42;585.83;;;;;;;25.55;79.41;101372.44;10477798;28;20084;-68
2023/09/16 08:09:08;;;;;;;599.90;568.15;;;;;;;26.19;80.45;101374.19;10495467;28;20041;-68
2023/09/16 08:14:09;;;;;;;554.53;526.45;;;;;;;26.71;77.98;101380.13;10477812;28;20380;-69
2023/09/16 08:19:09;;;;;;;508.48;483.75;;;;;;;26.70;73.72;101374.84;10495738;28;20036;-69
2023/09/16 08:24:10;;;;;;;805.97;754.53;;;;;;;26.64;70.08;101369.38;10494887;28;20044;-67
2023/09/16 08:29:10;;;;;;;834.38;780.38;;;;;;;26.51;69.25;101383.91;10477030;28;20115;-67
2023/09/16 08:34:11;;;;;;;853.92;798.58;;;;;;;26.49;70.84;101382.59;10460129;28;20439;-67
2023/09/16 08:39:11;;;;;;;847.15;791.92;;;;;;;26.90;71.06;101382.97;10493998;28;20123;-68
2023/09/16 08:44:13;;;;;;;795.63;744.92;;;;;;;26.52;74.01;101395.88;10494571;28;20036;-67
2023/09/16 08:49:13;;;;;;;825.30;772.17;;;;;;;25.63;69.39;101391.25;10475614;28;20025;-67
2023/09/16 08:54:14;;;;;;;832.50;778.70;;;;;;;25.59;74.78;101403.19;10460222;28;20032;-67
2023/09/16 08:59:14;;;;;;;784.53;734.92;;;;;;;25.03;73.02;101395.94;10493664;28;20040;-67
2023/09/16 09:04:14;;;;;;;797.50;746.40;;;;;;;25.08;73.92;101406.16;10477911;28;20180;-67
2023/09/16 09:09:15;;;;;;;771.78;723.60;;;;;;;24.66;74.88;101404.63;10501666;28;20088;-67
2023/09/16 09:14:15;;;;;;;847.00;791.83;;;;;;;24.98;77.47;101407.03;10468167;28;20111;-67
2023/09/16 09:19:16;;;;;;;819.50;766.70;;;;;;;25.55;73.56;101410.44;10467612;28;20444;-67
2023/09/16 09:24:16;;;;;;;800.20;749.28;;;;;;;26.84;70.12;101417.50;10484421;28;20435;-67
2023/09/16 09:29:17;;;;;;;819.47;766.83;;;;;;;28.17;67.11;101415.72;10502132;28;20119;-68
2023/09/16 09:34:17;;;;;;;815.63;763.15;;;;;;;29.13;61.08;101403.97;10501636;28;20102;-68
2023/09/16 09:39:18;;;;;;;850.63;794.67;;;;;;;28.94;55.17;101407.66;10483254;28;20037;-68
2023/09/16 09:44:19;;;;;;;851.08;795.83;;;;;;;28.61;53.89;101409.69;10501784;28;20161;-67
2023/09/16 09:49:19;;;;;;;822.67;769.65;;;;;;;28.79;51.98;101412.72;10500224;28;20035;-68
2023/09/16 09:54:20;;;;;;;1006.00;933.35;;;;;;;28.72;51.26;101416.72;10466039;28;20037;-69
2023/09/16 09:59:20;;;;;;;924.00;862.05;;;;;;;28.91;49.37;101424.19;10482792;28;20135;-70
2023/09/16 10:04:20;;;;;;;836.25;781.92;;;;;;;29.05;49.76;101418.66;10465999;28;20056;-66
2023/09/16 10:09:21;;;;;;;822.50;769.88;;;;;;;29.61;50.81;101415.50;10481436;28;20052;-66
2023/09/16 10:14:21;;;;;;;789.55;739.63;;;;;;;29.11;46.84;101422.97;10482089;28;20037;-73
2023/09/16 10:19:22;;;;;;;792.67;742.10;;;;;;;29.05;46.13;101413.88;10464916;28;20112;-71
2023/09/16 10:24:22;;;;;;;798.80;747.85;;;;;;;29.07;49.13;101410.78;10482198;28;20040;-71
2023/09/16 10:29:24;;;;;;;807.00;755.33;;;;;;;29.06;50.05;101393.22;10499428;28;20423;-71
2023/09/16 10:34:24;;;;;;;806.60;755.05;;;;;;;29.14;45.60;101389.72;10448237;28;20495;-69
2023/09/16 10:39:25;;;;;;;815.05;762.58;;;;;;;28.65;46.77;101387.59;10498547;28;20093;-71
2023/09/16 10:44:25;;;;;;;788.45;738.47;;;;;;;28.61;44.99;101389.34;10480470;28;20028;-72
2023/09/16 10:49:25;;;;;;;828.22;775.30;;;;;;;28.59;44.00;101391.63;10480796;28;20100;-72
2023/09/16 10:54:51;;;;;;;837.65;783.72;;;;;;;28.38;44.97;101389.19;10480050;28;20036;-72
2023/09/16 10:59:51;;;;;;;797.83;747.33;;;;;;;29.02;45.13;101383.00;10498381;28;20028;-71
2023/09/16 11:04:52;;;;;;;800.17;748.90;;;;;;;29.56;44.05;101384.88;10480698;28;20078;-72
2023/09/16 11:09:53;;;;;;;792.80;743.03;;;;;;;29.29;43.53;101383.00;10480651;28;20504;-72
2023/09/16 11:14:53;;;;;;;851.58;796.80;;;;;;;28.91;45.21;101372.03;10480807;28;20036;-70
2023/09/16 11:19:54;;;;;;;826.90;773.88;;;;;;;28.93;45.37;101375.31;10499559;28;20036;-72
2023/09/16 11:24:54;;;;;;;830.42;777.40;;;;;;;28.87;46.80;101372.97;10480123;28;20036;-72
2023/09/16 11:29:55;;;;;;;843.53;788.88;;;;;;;28.32;46.16;101370.91;10479644;28;20104;-72
2023/09/16 11:34:59;;;;;;;814.33;762.25;;;;;;;28.58;47.70;101362.09;10497207;28;20028;-72
2023/09/16 11:40:00;;;;;;;783.92;734.35;;;;;;;28.92;46.48;101358.94;10478901;28;20463;-72
2023/09/16 11:45:01;;;;;;;811.60;759.20;;;;;;;29.52;47.83;101342.00;10497970;28;20047;-70
2023/09/16 11:50:06;;;;;;;820.10;767.53;;;;;;;29.82;47.25;101351.63;10496237;28;20333;-72
2023/09/16 11:55:07;;;;;;;863.65;806.53;;;;;;;29.39;46.64;101352.06;10479115;28;20123;-72
2023/09/16 12:00:08;;;;;;;863.22;807.30;;;;;;;28.30;47.12;101350.88;10495627;28;20514;-72
2023/09/16 12:05:09;;;;;;;842.53;788.45;;;;;;;28.09;48.84;101353.22;10495994;28;20068;-70
2023/09/16 12:10:10;;;;;;;873.53;816.80;;;;;;;28.63;48.46;101351.69;10477424;28;20583;-71
2023/09/16 12:15:10;;;;;;;835.80;782.10;;;;;;;29.32;48.06;101351.66;10495386;28;20028;-71
2023/09/16 12:20:11;;;;;;;872.05;815.00;;;;;;;29.33;46.36;101350.53;10495698;28;20402;-71
2023/09/16 12:25:11;;;;;;;900.13;840.47;;;;;;;29.01;46.70;101343.16;10478027;28;20032;-71
2023/09/16 12:30:13;;;;;;;859.80;804.03;;;;;;;29.36;49.03;101343.50;10476781;28;20032;-70
2023/09/16 12:35:14;;;;;;;918.65;857.65;;;;;;;29.73;46.71;101342.38;10494521;28;20120;-71
2023/09/16 12:40:14;;;;;;;923.55;861.90;;;;;;;29.50;46.71;101335.91;10476438;28;20516;-70
2023/09/16 12:45:15;;;;;;;948.65;884.15;;;;;;;29.45;47.55;101333.22;10476260;28;20108;-70
2023/09/16 12:50:15;;;;;;;919.42;858.00;;;;;;;29.24;47.69;101335.69;10476550;28;20021;-70
2023/09/16 12:55:16;;;;;;;923.95;862.15;;;;;;;29.46;45.54;101332.09;10494775;28;20338;-70
2023/09/16 13:00:20;;;;;;;953.70;889.00;;;;;;;28.73;45.49;101334.75;10494262;28;20035;-70
2023/09/16 13:05:26;;;;;;;910.47;849.55;;;;;;;28.50;48.35;101328.25;10477254;28;20078;-70
2023/09/16 13:10:29;;;;;;;934.38;871.05;;;;;;;28.59;48.41;101320.00;10477437;28;20355;-70
2023/09/16 13:15:29;;;;;;;924.78;862.75;;;;;;;28.80;49.95;101326.00;10476624;28;20388;-71
2023/09/16 13:20:36;;;;;;;904.28;844.78;;;;;;;29.06;48.93;101322.69;10443752;28;20076;-71
2023/09/16 13:25:38;;;;;;;932.67;868.35;;;;;;;29.28;48.29;101322.75;10476791;28;20059;-71
2023/09/16 13:30:57;;;;;;;912.95;852.28;;;;;;;29.21;48.18;101319.56;10459417;28;20052;-71
2023/09/16 13:35:59;;;;;;;914.63;854.08;;;;;;;28.85;47.76;101331.47;10443609;28;20048;-71
2023/09/16 13:40:59;;;;;;;910.40;849.90;;;;;;;28.93;48.83;101313.19;10458532;28;20037;-72
2023/09/16 13:46:00;;;;;;;921.45;859.85;;;;;;;28.92;48.52;101314.31;10493871;28;20064;-71
2023/09/16 13:51:03;;;;;;;932.97;869.95;;;;;;;28.66;48.91;101319.59;10494958;28;20090;-72
2023/09/16 13:56:05;;;;;;;927.20;865.28;;;;;;;28.26;49.15;101319.22;10466207;28;20475;-72
2023/09/16 14:01:06;;;;;;;928.10;865.78;;;;;;;27.90;48.57;101324.59;10466247;28;20427;-72
2023/09/16 14:06:07;;;;;;;909.08;848.65;;;;;;;27.59;49.33;101328.66;10501545;28;20080;-72
2023/09/16 14:11:08;;;;;;;895.67;836.38;;;;;;;27.37;50.16;101331.22;10481432;28;20167;-73
2023/09/16 14:16:08;;;;;;;842.83;788.53;;;;;;;27.21;50.50;101324.22;10482136;28;20071;-69
2023/09/16 14:21:08;;;;;;;809.78;758.00;;;;;;;27.28;51.48;101322.75;10482157;28;20032;-68
2023/09/16 14:26:09;;;;;;;800.78;749.92;;;;;;;27.32;51.84;101329.34;10500174;28;20372;-68
2023/09/16 14:31:09;;;;;;;816.85;764.75;;;;;;;27.47;52.21;101319.09;10499900;28;20059;-68
2023/09/16 14:36:10;;;;;;;813.50;762.03;;;;;;;27.46;51.92;101311.91;10498443;28;20072;-68
2023/09/16 14:41:10;;;;;;;813.08;761.53;;;;;;;27.13;52.08;101312.66;10498312;28;20448;-68
2023/09/16 14:46:11;;;;;;;817.90;765.47;;;;;;;26.70;52.33;101316.50;10480907;28;20108;-69
2023/09/16 14:51:11;;;;;;;822.50;770.15;;;;;;;26.63;53.22;101317.69;10480576;28;20036;-68
2023/09/16 14:56:11;;;;;;;928.65;864.55;;;;;;;26.48;53.37;101309.53;10498747;28;20068;-68
2023/09/16 15:01:13;;;;;;;773.75;725.00;;;;;;;26.33;53.29;101301.34;10479463;28;20123;-68
2023/09/16 15:06:14;;;;;;;758.05;711.28;;;;;;;26.28;53.02;101309.72;10498488;28;20576;-68
2023/09/16 15:11:14;;;;;;;757.67;711.17;;;;;;;26.14;54.01;101320.69;10497672;28;20037;-68
2023/09/16 15:16:15;;;;;;;775.35;727.05;;;;;;;26.07;53.63;101318.25;10463725;28;20036;-68
2023/09/16 15:21:15;;;;;;;801.60;750.88;;;;;;;26.04;53.42;101315.22;10479181;28;20021;-69
2023/09/16 15:26:16;;;;;;;772.65;724.85;;;;;;;25.97;53.49;101304.44;10497181;28;20044;-68
2023/09/16 15:31:17;;;;;;;745.20;699.83;;;;;;;25.78;53.42;101306.25;10496933;28;20060;-68
2023/09/16 15:36:18;;;;;;;750.03;704.53;;;;;;;25.62;52.71;101306.41;10478590;28;20128;-68
2023/09/16 15:41:18;;;;;;;739.03;694.00;;;;;;;25.52;53.02;101306.44;10495047;28;20032;-68
2023/09/16 15:46:19;;;;;;;755.80;709.67;;;;;;;25.15;53.28;101305.03;10478985;28;20138;-69
2023/09/16 15:51:19;;;;;;;725.90;682.92;;;;;;;24.88;54.53;101315.66;10477183;28;20094;-68
2023/09/16 15:56:19;;;;;;;744.83;699.95;;;;;;;24.69;55.52;101313.50;10496451;28;20040;-68
2023/09/16 16:01:21;;;;;;;742.78;698.28;;;;;;;24.51;56.28;101311.34;10495815;28;20119;-68
2023/09/16 16:06:21;;;;;;;767.03;719.92;;;;;;;24.55;56.16;101307.72;10477250;28;20040;-68
2023/09/16 16:11:22;;;;;;;798.60;747.80;;;;;;;24.39;56.95;101308.84;10475998;28;20495;-68
2023/09/16 16:16:23;;;;;;;791.90;741.72;;;;;;;24.24;57.40;101306.94;10476096;28;20205;-68
2023/09/16 16:21:23;;;;;;;790.38;740.00;;;;;;;24.23;57.49;101310.00;10476817;28;20074;-68
2023/09/16 16:26:24;;;;;;;809.17;757.80;;;;;;;24.14;57.74;101306.97;10477365;28;20121;-68
2023/09/16 16:31:24;;;;;;;777.75;728.85;;;;;;;24.01;58.81;101313.88;10460175;28;20456;-68
2023/09/16 16:36:25;;;;;;;784.00;734.75;;;;;;;23.79;60.18;101311.41;10493744;28;20122;-68
2023/09/16 16:41:25;;;;;;;787.80;737.78;;;;;;;23.66;61.13;101307.22;10477179;28;20119;-68
2023/09/16 16:46:26;;;;;;;792.45;742.33;;;;;;;23.40;66.54;101308.28;10459890;28;20032;-68
2023/09/16 16:51:26;;;;;;;772.38;724.42;;;;;;;23.33;64.37;101307.72;10459513;28;20105;-68
2023/09/16 16:56:27;;;;;;;787.42;737.88;;;;;;;23.26;63.66;101299.72;10494077;28;20047;-68
2023/09/16 17:01:27;;;;;;;779.53;730.92;;;;;;;23.14;64.38;101308.22;10475216;28;20033;-68
2023/09/16 17:06:28;;;;;;;783.42;733.85;;;;;;;22.95;67.01;101315.34;10476695;28;20056;-68
2023/09/16 17:11:28;;;;;;;789.75;739.97;;;;;;;22.81;68.10;101320.50;10476048;28;20115;-68
2023/09/16 17:16:30;;;;;;;781.40;732.47;;;;;;;22.71;67.78;101320.44;10475094;28;20035;-68
2023/09/16 17:21:30;;;;;;;799.17;748.05;;;;;;;22.57;68.56;101317.34;10474895;28;20175;-68
2023/09/16 17:26:31;;;;;;;806.20;754.70;;;;;;;22.39;71.20;101318.59;10479013;28;20085;-68
2023/09/16 17:31:31;;;;;;;784.15;734.92;;;;;;;22.27;71.50;101326.25;10502542;28;20060;-68
2023/09/16 17:36:32;;;;;;;787.50;737.35;;;;;;;22.15;71.63;101333.88;10502371;28;20033;-68
2023/09/16 17:41:32;;;;;;;794.50;744.22;;;;;;;22.00;72.76;101334.59;10483773;28;20036;-68
2023/09/16 17:46:33;;;;;;;780.45;731.22;;;;;;;21.85;74.96;101338.03;10484774;28;20111;-68
2023/09/16 17:51:33;;;;;;;797.03;746.30;;;;;;;21.75;74.13;101337.94;10483385;28;20029;-68
2023/09/16 17:56:34;;;;;;;769.53;722.00;;;;;;;21.66;74.74;101340.34;10483503;28;20044;-67
2023/09/16 18:01:34;;;;;;;742.72;697.60;;;;;;;21.53;75.31;101347.09;10482758;28;20035;-67
2023/09/16 18:06:36;;;;;;;731.50;687.80;;;;;;;21.40;78.44;101343.94;10482470;28;20060;-67
2023/09/16 18:11:37;;;;;;;718.33;675.83;;;;;;;21.37;76.94;101345.28;10500013;28;20173;-67
2023/09/16 18:16:37;;;;;;;726.33;682.92;;;;;;;21.29;77.92;101356.75;10482466;28;20476;-67
2023/09/16 18:21:38;;;;;;;753.97;707.92;;;;;;;21.16;83.33;101368.16;10481998;28;20341;-68
2023/09/16 18:26:38;;;;;;;738.90;694.60;;;;;;;21.03;86.90;101370.19;10482702;28;20068;-67
2023/09/16 18:31:38;;;;;;;777.88;728.88;;;;;;;20.98;87.74;101372.06;10482559;28;20445;-67
2023/09/16 18:36:39;;;;;;;774.80;726.70;;;;;;;20.98;88.92;101375.63;10498666;28;20047;-68
2023/09/16 18:41:39;;;;;;;771.42;723.65;;;;;;;20.96;90.64;101380.56;10481773;28;20048;-67
2023/09/16 18:46:41;;;;;;;773.65;725.20;;;;;;;21.03;87.91;101369.38;10498368;28;20484;-67
2023/09/16 18:51:42;;;;;;;768.63;720.38;;;;;;;21.07;88.64;101376.84;10464972;28;20393;-68
2023/09/16 18:56:43;;;;;;;774.72;725.85;;;;;;;21.12;86.80;101374.19;10480225;28;20148;-67
2023/09/16 19:01:43;;;;;;;792.80;742.50;;;;;;;21.11;87.75;101383.50;10499233;28;20119;-68
2023/09/16 19:06:44;;;;;;;795.88;745.25;;;;;;;21.10;88.21;101379.09;10481350;28;20052;-68
2023/09/16 19:11:44;;;;;;;782.35;732.85;;;;;;;21.11;88.10;101385.44;10499399;28;20461;-68
2023/09/16 19:16:44;;;;;;;749.65;704.25;;;;;;;21.16;87.35;101385.50;10479731;28;20043;-68
2023/09/16 19:21:45;;;;;;;721.25;678.97;;;;;;;21.20;86.42;101383.06;10497881;28;20120;-68
2023/09/16 19:26:45;;;;;;;750.33;704.55;;;;;;;21.22;86.62;101390.00;10498401;28;20029;-67
2023/09/16 19:31:46;;;;;;;743.22;698.00;;;;;;;21.26;85.19;101384.78;10496668;28;20064;-67
2023/09/16 19:36:49;;;;;;;773.15;725.03;;;;;;;21.24;85.44;101386.97;10496791;28;20440;-70
2023/09/16 19:41:49;;;;;;;762.17;715.58;;;;;;;21.23;86.97;101390.81;10495800;28;20039;-68
2023/09/16 19:46:50;;;;;;;746.88;701.75;;;;;;;21.25;85.00;101402.41;10478194;28;20490;-68
2023/09/16 19:51:50;;;;;;;752.38;706.50;;;;;;;21.22;86.44;101402.91;10494972;28;20063;-68
2023/09/16 19:56:51;;;;;;;730.17;686.45;;;;;;;21.16;89.45;101406.72;10477910;28;20376;-67
2023/09/16 20:01:52;;;;;;;807.40;756.15;;;;;;;21.12;89.40;101401.72;10495182;28;20041;-67
2023/09/16 20:06:53;;;;;;;723.33;680.63;;;;;;;21.02;93.43;101407.06;10496255;28;20134;-68
2023/09/16 20:11:53;;;;;;;731.90;688.10;;;;;;;20.96;94.42;101412.75;10495575;28;20078;-67
2023/09/16 20:16:54;;;;;;;725.33;682.35;;;;;;;20.91;93.81;101413.53;10495370;28;20040;-67
2023/09/16 20:21:54;;;;;;;780.88;731.90;;;;;;;20.80;98.08;101423.56;10495284;28;20102;-67
2023/09/16 20:26:55;;;;;;;763.17;715.85;;;;;;;20.75;97.72;101426.25;10478627;28;20033;-68
2023/09/16 20:31:55;;;;;;;698.42;656.83;;;;;;;20.67;100.00;101433.00;10476969;28;20035;-68
2023/09/16 20:36:56;;;;;;;829.53;772.17;;;;;;;20.59;100.00;101416.09;10494737;28;20191;-68
2023/09/16 20:41:56;;;;;;;615.10;580.80;;;;;;;20.48;100.00;101422.47;10495101;28;20469;-68
2023/09/16 20:46:56;;;;;;;411.10;388.52;;;;;;;20.36;100.00;101425.34;10476411;28;20045;-67
2023/09/16 20:51:57;;;;;;;330.80;315.90;;;;;;;20.34;100.00;101427.50;10495779;28;20063;-68
2023/09/16 20:56:58;;;;;;;393.83;376.45;;;;;;;20.35;100.00;101424.47;10459814;28;20427;-67
2023/09/16 21:01:58;;;;;;;469.02;446.88;;;;;;;20.37;100.00;101416.00;10494485;28;20101;-68
2023/09/16 21:06:59;;;;;;;387.85;370.65;;;;;;;20.27;100.00;101421.34;10494727;28;20055;-68
2023/09/16 21:12:00;;;;;;;384.00;366.70;;;;;;;20.24;100.00;101424.56;10476063;28;20028;-67
2023/09/16 21:17:00;;;;;;;397.40;379.00;;;;;;;20.24;100.00;101432.81;10494505;28;20044;-69
2023/09/16 21:22:01;;;;;;;427.92;408.42;;;;;;;20.11;100.00;101429.31;10475381;28;20090;-67
2023/09/16 21:27:01;;;;;;;390.55;372.50;;;;;;;19.82;100.00;101439.50;10494148;28;20043;-67
2023/09/16 21:32:02;;;;;;;450.27;429.55;;;;;;;19.55;100.00;101455.69;10494167;28;20119;-67
2023/09/16 21:37:03;;;;;;;541.65;513.88;;;;;;;19.41;100.00;101444.16;10475784;28;20171;-68
2023/09/16 21:42:04;;;;;;;610.97;577.85;;;;;;;19.22;100.00;101446.22;10493296;28;20029;-67
2023/09/16 21:47:05;;;;;;;711.13;668.92;;;;;;;19.15;100.00;101451.03;10476595;28;20028;-67
2023/09/16 21:52:05;;;;;;;742.85;697.40;;;;;;;19.06;100.00;101455.22;10493350;28;20500;-67
2023/09/16 21:57:06;;;;;;;731.72;687.30;;;;;;;18.92;100.00;101465.63;10493341;28;20025;-67